Time;durP1;ratioP1;P1;durP2;ratioP2;P2;SDS_P1;SDS_P2;PMS_P1;PMS_P2;Temp;Humidity;BMP_temperature;BMP_pressure;BME280_temperature;BME280_humidity;BME280_pressure;Samples;Min_cycle;Max_cycle;Signal;HPM_P1;HPM_P2
2023/10/16 00:01:38;;;;;;;24.73;19.13;;;5.00;99.90;;;;;;4938280;28;20461;-71
2023/10/16 00:04:05;;;;;;;25.00;19.42;;;5.00;99.90;;;;;;4935108;28;20568;-72
2023/10/16 00:06:34;;;;;;;29.90;19.77;;;5.00;99.90;;;;;;4935142;28;20044;-70
2023/10/16 00:09:23;;;;;;;31.85;21.30;;;5.00;99.90;;;;;;4939340;28;20074;-72
2023/10/16 00:11:48;;;;;;;30.20;21.38;;;5.00;99.90;;;;;;4936052;28;20135;-71
2023/10/16 00:14:24;;;;;;;30.00;22.55;;;5.00;99.90;;;;;;4921483;28;20478;-71
2023/10/16 00:16:52;;;;;;;30.83;21.75;;;4.90;99.90;;;;;;4927644;28;20538;-70
2023/10/16 00:19:19;;;;;;;32.25;23.25;;;5.00;99.90;;;;;;4936742;28;20051;-71
2023/10/16 00:21:46;;;;;;;31.63;24.08;;;4.90;99.90;;;;;;4936061;28;20034;-71
2023/10/16 00:24:13;;;;;;;35.97;24.35;;;4.90;99.90;;;;;;4935328;28;20118;-72
2023/10/16 00:26:45;;;;;;;31.27;25.23;;;4.90;99.90;;;;;;4918094;28;20051;-71
2023/10/16 00:29:24;;;;;;;35.72;27.05;;;4.90;99.90;;;;;;4937469;28;20115;-72
2023/10/16 00:31:51;;;;;;;40.97;25.92;;;4.90;99.90;;;;;;4939913;28;20055;-71
2023/10/16 00:34:20;;;;;;;36.03;25.75;;;4.90;99.90;;;;;;4942044;28;20565;-70
2023/10/16 00:36:53;;;;;;;36.88;25.67;;;4.90;99.90;;;;;;4922738;28;20505;-72
2023/10/16 00:39:22;;;;;;;40.30;26.10;;;4.80;99.90;;;;;;4935776;28;20707;-72
2023/10/16 00:41:51;;;;;;;39.75;26.27;;;4.80;99.90;;;;;;4936531;28;20493;-71
2023/10/16 00:44:18;;;;;;;35.30;27.33;;;4.80;99.90;;;;;;4937663;28;20047;-71
2023/10/16 00:46:48;;;;;;;43.97;29.60;;;4.80;99.90;;;;;;4936479;28;20050;-72
2023/10/16 00:49:18;;;;;;;46.13;31.08;;;4.80;99.90;;;;;;4926149;28;20653;-70
2023/10/16 00:51:46;;;;;;;45.33;31.42;;;4.80;99.90;;;;;;4923085;28;20141;-71
2023/10/16 00:54:27;;;;;;;45.97;30.88;;;4.80;99.90;;;;;;4934860;28;20047;-70
2023/10/16 00:56:58;;;;;;;48.47;31.65;;;4.70;99.90;;;;;;4914735;28;20059;-69
2023/10/16 00:59:25;;;;;;;50.42;32.78;;;4.70;99.90;;;;;;4936817;28;20051;-71
2023/10/16 01:04:52;;;;;;;65.22;42.88;;;4.60;99.90;;;;;;4915170;28;20058;-71
2023/10/16 01:07:19;;;;;;;62.20;36.28;;;4.60;99.90;;;;;;4919377;28;20425;-70
2023/10/16 01:09:50;;;;;;;54.85;36.85;;;4.60;99.90;;;;;;4923864;28;20129;-70
2023/10/16 01:12:20;;;;;;;59.40;37.28;;;4.60;99.90;;;;;;4920553;28;20051;-70
2023/10/16 01:14:47;;;;;;;56.17;41.15;;;4.70;99.90;;;;;;4922927;28;20057;-72
2023/10/16 01:17:14;;;;;;;61.13;40.60;;;4.70;99.90;;;;;;4944317;28;20810;-71
2023/10/16 01:19:43;;;;;;;78.70;46.28;;;4.80;99.90;;;;;;4922773;28;20051;-71
2023/10/16 01:22:11;;;;;;;63.42;40.53;;;4.80;99.90;;;;;;4940954;28;20050;-70
2023/10/16 01:24:43;;;;;;;61.50;41.60;;;4.80;99.90;;;;;;4933464;28;20630;-71
2023/10/16 01:27:25;;;;;;;62.40;43.75;;;4.90;99.90;;;;;;4918363;28;20047;-72
2023/10/16 01:29:53;;;;;;;63.53;43.13;;;4.90;99.90;;;;;;4936874;28;20082;-70
2023/10/16 01:32:21;;;;;;;72.03;44.88;;;4.90;99.90;;;;;;4920755;28;20047;-73
2023/10/16 01:34:50;;;;;;;72.50;45.45;;;4.90;99.90;;;;;;4937321;28;20044;-73
2023/10/16 01:37:18;;;;;;;75.40;44.72;;;4.90;99.90;;;;;;4934411;28;20043;-73
2023/10/16 01:39:48;;;;;;;72.65;46.35;;;5.00;99.90;;;;;;4932227;28;20713;-70
2023/10/16 01:42:17;;;;;;;73.75;47.70;;;5.00;99.90;;;;;;4902821;28;20051;-73
2023/10/16 01:44:45;;;;;;;81.40;48.55;;;5.00;99.90;;;;;;4937804;28;20592;-75
2023/10/16 01:47:15;;;;;;;77.85;48.97;;;4.90;99.90;;;;;;4933036;28;20602;-71
2023/10/16 01:49:44;;;;;;;81.43;48.10;;;5.00;99.90;;;;;;4920434;28;20071;-72
2023/10/16 01:52:11;;;;;;;80.65;47.78;;;5.00;99.90;;;;;;4926509;28;20058;-73
2023/10/16 01:54:48;;;;;;;70.72;46.65;;;5.00;99.90;;;;;;4926011;28;20046;-71
2023/10/16 01:57:15;;;;;;;83.90;50.35;;;5.00;99.90;;;;;;4912284;28;20130;-70
2023/10/16 01:59:45;;;;;;;83.88;48.95;;;5.00;99.90;;;;;;4935349;28;20046;-70
2023/10/16 02:02:12;;;;;;;75.90;46.63;;;5.00;99.90;;;;;;4928314;28;20044;-71
2023/10/16 02:04:41;;;;;;;75.45;47.58;;;5.00;99.90;;;;;;4916723;29;20039;-71
2023/10/16 02:07:08;;;;;;;78.45;49.25;;;5.10;99.90;;;;;;4905853;28;20051;-71
2023/10/16 02:09:39;;;;;;;86.57;49.53;;;5.10;99.90;;;;;;4935618;29;20062;-70
2023/10/16 02:12:10;;;;;;;80.20;49.72;;;5.10;99.90;;;;;;4902824;28;20059;-71
2023/10/16 02:14:41;;;;;;;80.35;50.25;;;5.10;99.90;;;;;;4936877;28;20422;-72
2023/10/16 02:17:19;;;;;;;92.18;51.42;;;5.10;99.90;;;;;;4930561;28;20039;-70
2023/10/16 02:19:47;;;;;;;89.38;52.70;;;5.20;99.90;;;;;;4929723;28;20121;-70
2023/10/16 02:22:16;;;;;;;82.90;50.75;;;5.10;99.90;;;;;;4948120;28;20051;-71
2023/10/16 02:24:45;;;;;;;89.80;51.03;;;5.10;99.90;;;;;;4951244;28;20679;-70
2023/10/16 02:27:12;;;;;;;90.60;50.63;;;5.10;99.90;;;;;;4942988;28;20534;-71
2023/10/16 02:29:45;;;;;;;84.63;50.17;;;5.10;99.90;;;;;;4936633;29;20043;-71
2023/10/16 02:32:13;;;;;;;97.82;51.70;;;5.10;99.90;;;;;;4938843;28;20046;-71
2023/10/16 02:34:41;;;;;;;92.15;53.10;;;5.10;99.90;;;;;;4934128;29;20039;-71
2023/10/16 02:37:13;;;;;;;94.05;52.88;;;5.10;99.90;;;;;;4944557;28;20054;-71
2023/10/16 02:39:50;;;;;;;89.57;50.63;;;5.10;99.90;;;;;;4933275;29;20043;-70
2023/10/16 02:42:19;;;;;;;89.60;51.00;;;5.10;99.90;;;;;;4953387;28;20047;-70
2023/10/16 02:44:47;;;;;;;87.93;50.85;;;5.10;99.90;;;;;;4928207;28;20031;-70
2023/10/16 02:47:22;;;;;;;84.68;50.17;;;5.10;99.90;;;;;;4956257;28;20040;-72
2023/10/16 02:49:49;;;;;;;95.13;52.50;;;5.10;99.90;;;;;;4941377;28;20318;-69
2023/10/16 02:52:16;;;;;;;94.35;51.40;;;5.20;99.90;;;;;;4955535;28;20051;-70
2023/10/16 02:54:47;;;;;;;76.68;48.13;;;5.20;99.90;;;;;;4958807;28;20043;-71
2023/10/16 02:57:14;;;;;;;94.03;49.20;;;5.20;99.90;;;;;;4940272;28;20063;-70
2023/10/16 02:59:43;;;;;;;85.88;48.47;;;5.20;99.90;;;;;;4954881;28;20070;-71
2023/10/16 03:02:17;;;;;;;84.82;50.72;;;5.20;99.90;;;;;;4935282;28;20148;-71
2023/10/16 03:04:49;;;;;;;83.95;49.05;;;5.10;99.90;;;;;;4930302;29;20054;-72
2023/10/16 03:07:16;;;;;;;89.45;50.08;;;5.00;99.90;;;;;;4917459;28;20039;-72
2023/10/16 03:09:43;;;;;;;88.65;51.72;;;5.10;99.90;;;;;;4912350;29;20031;-72
2023/10/16 03:12:11;;;;;;;86.47;50.85;;;5.10;99.90;;;;;;4914069;28;20720;-71
2023/10/16 03:14:50;;;;;;;85.18;50.35;;;5.20;99.90;;;;;;4931125;29;20059;-72
2023/10/16 03:17:33;;;;;;;91.07;51.25;;;5.20;99.90;;;;;;4912088;28;20047;-71
2023/10/16 03:20:08;;;;;;;81.78;48.25;;;5.20;99.90;;;;;;4934971;28;20147;-74
2023/10/16 03:22:35;;;;;;;84.25;48.30;;;5.20;99.90;;;;;;4922928;29;20118;-73
2023/10/16 03:25:12;;;;;;;85.65;50.20;;;5.10;99.90;;;;;;4939080;28;20519;-74
2023/10/16 03:27:42;;;;;;;90.00;52.60;;;5.10;99.90;;;;;;4938326;28;20114;-74
2023/10/16 03:30:10;;;;;;;106.97;54.45;;;5.20;99.90;;;;;;4938477;28;20510;-73
2023/10/16 03:32:36;;;;;;;90.30;51.78;;;5.20;99.90;;;;;;4930681;29;20058;-74
2023/10/16 03:35:08;;;;;;;87.45;51.17;;;5.20;99.90;;;;;;4957319;28;20027;-72
2023/10/16 03:37:35;;;;;;;85.47;50.60;;;5.20;99.90;;;;;;4965385;28;20279;-72
2023/10/16 03:40:11;;;;;;;94.15;50.75;;;5.20;99.90;;;;;;4925520;28;20140;-72
2023/10/16 03:42:40;;;;;;;85.22;50.25;;;5.10;99.90;;;;;;4939117;28;20047;-73
2023/10/16 03:45:08;;;;;;;81.55;48.58;;;5.10;99.90;;;;;;4939856;28;20062;-72
2023/10/16 03:47:35;;;;;;;91.85;48.95;;;5.20;99.90;;;;;;4941229;28;20602;-73
2023/10/16 03:50:03;;;;;;;79.93;48.45;;;5.20;99.90;;;;;;4927609;28;20102;-72
2023/10/16 03:52:30;;;;;;;79.93;46.67;;;5.30;99.90;;;;;;4905490;28;20141;-73
2023/10/16 03:54:57;;;;;;;74.30;45.35;;;5.40;99.90;;;;;;4938963;28;20051;-73
2023/10/16 03:57:24;;;;;;;82.35;47.88;;;5.40;99.90;;;;;;4933106;28;20138;-73
2023/10/16 03:59:51;;;;;;;67.80;42.42;;;5.40;99.90;;;;;;4919730;28;20569;-73
2023/10/16 04:02:22;;;;;;;72.43;42.38;;;5.30;99.90;;;;;;4934140;28;20063;-71
2023/10/16 04:04:53;;;;;;;75.10;43.08;;;5.40;99.90;;;;;;4927423;28;20051;-70
2023/10/16 04:07:22;;;;;;;66.93;38.88;;;5.30;99.90;;;;;;4919997;28;20051;-71
2023/10/16 04:09:49;;;;;;;67.65;39.63;;;5.40;99.90;;;;;;4942261;28;20244;-72
2023/10/16 04:12:21;;;;;;;67.32;37.53;;;5.40;99.90;;;;;;4920252;28;20092;-73
2023/10/16 04:14:55;;;;;;;59.80;38.92;;;5.40;99.90;;;;;;4919188;29;20430;-71
2023/10/16 04:17:26;;;;;;;59.63;36.25;;;5.40;99.90;;;;;;4921631;28;20051;-71
2023/10/16 04:19:59;;;;;;;59.78;36.40;;;5.40;99.90;;;;;;4921176;28;20118;-71
2023/10/16 04:22:27;;;;;;;51.03;33.15;;;5.40;99.90;;;;;;4936456;28;20565;-71
2023/10/16 04:24:54;;;;;;;46.80;33.08;;;5.40;99.90;;;;;;4921349;28;20059;-70
2023/10/16 04:27:34;;;;;;;58.75;34.00;;;5.30;99.90;;;;;;4934267;28;20051;-72
2023/10/16 04:34:57;;;;;;;48.50;32.13;;;5.30;99.90;;;;;;4919866;28;20078;-71
2023/10/16 04:50:29;;;;;;;54.45;32.80;;;5.30;99.90;;;;;;4913993;28;20130;-73
2023/10/16 04:53:21;;;;;;;57.15;34.85;;;5.30;99.90;;;;;;4931905;28;20035;-73
2023/10/16 05:03:35;;;;;;;47.28;32.42;;;5.50;99.90;;;;;;4914114;28;21086;-72
2023/10/16 06:14:36;;;;;;;43.20;24.48;;;5.40;99.90;;;;;;4933379;28;19977;-73
2023/10/16 06:17:18;;;;;;;39.38;24.30;;;5.40;99.90;;;;;;4930390;28;20105;-73
2023/10/16 06:19:45;;;;;;;34.95;23.35;;;5.50;99.90;;;;;;4917747;28;20050;-73
2023/10/16 06:22:12;;;;;;;33.78;22.35;;;5.50;99.90;;;;;;4925983;28;20119;-73
2023/10/16 06:24:44;;;;;;;33.97;24.10;;;5.40;99.90;;;;;;4932404;28;20079;-73
2023/10/16 06:27:18;;;;;;;31.45;21.08;;;5.50;99.90;;;;;;4912186;28;20047;-73
2023/10/16 06:29:53;;;;;;;33.05;22.50;;;5.50;99.90;;;;;;4914906;28;20583;-72
2023/10/16 06:32:25;;;;;;;29.05;23.05;;;5.50;99.90;;;;;;4928107;28;20193;-72
2023/10/16 06:34:57;;;;;;;32.33;23.42;;;5.50;99.90;;;;;;4934231;28;20053;-73
2023/10/16 06:37:28;;;;;;;36.88;23.30;;;5.60;99.90;;;;;;4933610;28;20115;-73
2023/10/16 06:39:58;;;;;;;33.88;23.90;;;5.60;99.90;;;;;;4935241;28;20053;-72
2023/10/16 06:42:29;;;;;;;35.88;23.02;;;5.70;99.90;;;;;;4914302;28;20061;-73
2023/10/16 06:45:09;;;;;;;35.50;22.83;;;5.70;99.90;;;;;;4918129;28;20414;-72
2023/10/16 06:47:36;;;;;;;26.52;21.35;;;5.80;99.90;;;;;;4930758;28;20055;-73
2023/10/16 06:52:56;;;;;;;29.42;20.65;;;5.70;99.90;;;;;;4930172;28;20058;-72
2023/10/16 06:55:23;;;;;;;31.33;20.77;;;5.70;99.90;;;;;;4918998;28;20055;-73
2023/10/16 06:57:50;;;;;;;24.45;20.40;;;5.80;99.90;;;;;;4934537;28;20478;-73
2023/10/16 07:00:27;;;;;;;24.73;20.52;;;5.80;99.90;;;;;;4920404;28;20576;-72
2023/10/16 07:02:56;;;;;;;28.83;21.20;;;5.90;99.90;;;;;;4903355;28;20055;-73
2023/10/16 07:05:42;;;;;;;24.55;20.63;;;5.90;99.90;;;;;;4932333;28;22158;-72
2023/10/16 07:08:22;;;;;;;28.35;20.45;;;6.00;99.90;;;;;;4935309;28;20565;-73
2023/10/16 07:10:55;;;;;;;29.23;19.35;;;6.00;99.90;;;;;;4917741;28;20066;-73
2023/10/16 07:13:27;;;;;;;26.90;19.10;;;6.00;99.90;;;;;;4934407;28;20062;-71
2023/10/16 07:16:01;;;;;;;24.98;20.23;;;6.00;99.90;;;;;;4900299;28;20051;-72
2023/10/16 07:18:35;;;;;;;29.02;19.88;;;6.10;99.90;;;;;;4933875;28;20043;-72
2023/10/16 07:23:34;;;;;;;30.48;19.48;;;6.10;99.90;;;;;;4935496;28;20094;-73
2023/10/16 07:26:06;;;;;;;30.35;19.40;;;6.10;99.90;;;;;;4935696;28;20047;-71
2023/10/16 07:28:34;;;;;;;22.20;19.15;;;6.10;99.90;;;;;;4934118;28;20117;-71
2023/10/16 07:31:05;;;;;;;23.17;20.77;;;6.20;99.90;;;;;;4934748;28;20176;-73
2023/10/16 07:33:32;;;;;;;20.55;18.27;;;6.20;99.90;;;;;;4939172;28;20253;-71
2023/10/16 07:35:59;;;;;;;26.08;19.20;;;6.20;99.90;;;;;;4935616;28;20046;-72
2023/10/16 07:38:27;;;;;;;22.00;19.67;;;6.30;99.90;;;;;;4918979;28;20730;-73
2023/10/16 07:40:59;;;;;;;24.25;18.92;;;6.30;99.90;;;;;;4914900;28;20047;-73
2023/10/16 07:43:29;;;;;;;25.48;20.80;;;6.40;99.90;;;;;;4921707;28;20048;-73
2023/10/16 07:48:46;;;;;;;29.35;20.08;;;6.40;99.90;;;;;;4936027;28;20126;-71
2023/10/16 07:51:16;;;;;;;;;;;6.40;99.90;;;;;;4938905;28;20546;-72
2023/10/16 07:53:43;;;;;;;21.13;18.52;;;6.40;99.90;;;;;;4932378;28;20289;-72
2023/10/16 07:56:19;;;;;;;29.13;19.38;;;6.30;99.90;;;;;;4902102;28;20051;-72
2023/10/16 07:58:49;;;;;;;25.15;18.33;;;6.20;99.90;;;;;;4931725;28;20035;-71
2023/10/16 08:01:17;;;;;;;29.63;20.17;;;6.20;99.90;;;;;;4958704;28;20051;-70
2023/10/16 08:03:48;;;;;;;24.50;19.40;;;6.30;99.90;;;;;;4959906;28;20042;-71
2023/10/16 08:06:23;;;;;;;21.97;19.57;;;6.30;99.90;;;;;;4934862;28;20044;-72
2023/10/16 08:11:44;;;;;;;24.48;21.92;;;6.30;99.90;;;;;;4935300;28;20059;-71
2023/10/16 08:14:13;;;;;;;36.10;23.98;;;6.50;99.90;;;;;;4922846;28;20473;-72
2023/10/16 08:16:40;;;;;;;27.63;21.27;;;6.60;99.90;;;;;;4934926;28;20050;-72
2023/10/16 08:19:16;;;;;;;35.47;21.80;;;6.50;99.90;;;;;;4934552;28;20094;-71
2023/10/16 08:21:43;;;;;;;29.40;21.45;;;6.70;99.90;;;;;;4935514;28;20072;-72
2023/10/16 08:24:13;;;;;;;27.95;20.58;;;6.70;99.90;;;;;;4935957;28;20035;-70
2023/10/16 08:26:52;;;;;;;34.78;22.60;;;6.70;99.90;;;;;;4935379;28;20059;-69
2023/10/16 08:29:25;;;;;;;29.73;22.48;;;6.60;99.90;;;;;;4932659;28;20047;-70
2023/10/16 08:34:40;;;;;;;24.33;18.88;;;6.60;99.90;;;;;;4932820;28;20087;-70
2023/10/16 08:37:12;;;;;;;21.50;19.45;;;6.60;99.90;;;;;;4930342;28;20055;-69
2023/10/16 08:39:44;;;;;;;25.70;21.27;;;6.60;99.90;;;;;;4917955;28;20122;-70
2023/10/16 08:42:20;;;;;;;28.52;22.13;;;6.60;99.90;;;;;;4912752;28;20144;-70
2023/10/16 08:44:51;;;;;;;27.33;23.13;;;6.60;99.90;;;;;;4933648;28;20074;-69
2023/10/16 08:47:24;;;;;;;25.27;21.65;;;6.60;99.90;;;;;;4915735;28;20222;-70
2023/10/16 08:49:54;;;;;;;32.30;21.75;;;6.80;99.90;;;;;;4934431;28;20498;-71
2023/10/16 08:52:34;;;;;;;27.33;21.52;;;6.90;99.90;;;;;;4931778;28;20114;-71
2023/10/16 08:55:14;;;;;;;31.45;20.20;;;7.00;99.90;;;;;;4934027;28;20051;-70
2023/10/16 08:57:45;;;;;;;29.35;22.48;;;7.00;99.90;;;;;;4930682;28;20127;-71
2023/10/16 09:00:22;;;;;;;23.88;21.50;;;7.20;99.90;;;;;;4931180;28;20070;-69
2023/10/16 09:02:54;;;;;;;28.15;20.33;;;7.30;99.90;;;;;;4930508;28;20137;-71
2023/10/16 09:05:21;;;;;;;27.23;20.30;;;7.50;99.90;;;;;;4913037;28;20044;-71
2023/10/16 09:07:48;;;;;;;28.20;21.02;;;7.30;99.90;;;;;;4933474;28;20047;-71
2023/10/16 09:10:15;;;;;;;25.58;21.90;;;7.30;99.90;;;;;;4932234;28;20039;-70
2023/10/16 09:12:52;;;;;;;25.70;22.05;;;7.20;99.90;;;;;;4930110;28;20054;-70
2023/10/16 09:15:24;;;;;;;21.90;19.65;;;7.20;99.90;;;;;;4915442;28;20709;-71
2023/10/16 09:17:52;;;;;;;27.38;24.75;;;7.10;99.90;;;;;;4914596;28;20071;-71
2023/10/16 09:20:22;;;;;;;30.40;21.17;;;7.20;99.90;;;;;;4909845;28;20138;-71
2023/10/16 09:22:50;;;;;;;23.77;21.33;;;7.20;99.90;;;;;;4915689;28;20043;-71
2023/10/16 09:25:23;;;;;;;26.48;21.40;;;7.30;99.90;;;;;;4932579;28;20050;-70
2023/10/16 09:27:52;;;;;;;26.95;21.33;;;7.50;99.90;;;;;;4930671;28;20050;-71
2023/10/16 09:30:22;;;;;;;24.65;19.73;;;7.70;99.90;;;;;;4911218;28;20071;-71
2023/10/16 09:32:51;;;;;;;24.23;19.48;;;7.60;99.90;;;;;;4898380;28;20568;-71
2023/10/16 09:35:26;;;;;;;23.75;21.40;;;7.70;99.90;;;;;;4930077;28;20134;-70
2023/10/16 09:38:09;;;;;;;30.27;22.75;;;7.50;99.90;;;;;;4932897;28;20042;-71
2023/10/16 09:40:39;;;;;;;25.80;23.05;;;7.40;99.90;;;;;;4927072;28;20146;-73
2023/10/16 09:43:24;;;;;;;24.08;21.77;;;7.60;99.90;;;;;;4930621;28;20047;-72
2023/10/16 09:46:33;;;;;;;23.13;20.83;;;7.60;99.90;;;;;;4913737;28;20071;-72
2023/10/16 09:48:39;;;;;;;26.77;21.65;;;7.60;99.90;;;;;;4930284;28;20075;-71
2023/10/16 09:51:09;;;;;;;26.88;20.90;;;7.70;99.90;;;;;;4931478;28;20047;-71
2023/10/16 09:53:36;;;;;;;29.55;25.25;;;7.70;99.90;;;;;;4916099;28;20122;-72
2023/10/16 09:56:06;;;;;;;30.33;24.95;;;7.90;99.90;;;;;;4929956;28;20070;-72
2023/10/16 09:58:34;;;;;;;27.95;24.95;;;7.90;99.90;;;;;;4932082;28;20700;-69
2023/10/16 10:01:13;;;;;;;31.20;26.90;;;8.10;99.90;;;;;;4927620;28;20410;-70
2023/10/16 10:03:43;;;;;;;28.65;23.80;;;8.10;99.90;;;;;;4931770;28;20039;-72
2023/10/16 10:06:20;;;;;;;35.10;26.58;;;8.20;99.90;;;;;;4932646;28;20114;-72
2023/10/16 10:11:38;;;;;;;29.85;26.83;;;7.90;99.90;;;;;;4912339;28;20047;-72
2023/10/16 10:14:48;;;;;;;33.35;29.35;;;7.90;99.90;;;;;;4930614;28;20039;-71
2023/10/16 10:17:19;;;;;;;31.70;27.05;;;7.90;99.90;;;;;;4933237;28;20580;-72
2023/10/16 10:19:55;;;;;;;30.35;27.13;;;8.10;99.90;;;;;;4921730;28;20051;-74
2023/10/16 10:22:28;;;;;;;30.23;27.33;;;8.10;99.90;;;;;;4933842;28;20054;-73
2023/10/16 10:25:16;;;;;;;29.95;26.75;;;8.20;99.90;;;;;;4920809;28;20047;-74
2023/10/16 10:27:55;;;;;;;32.50;29.20;;;8.30;99.90;;;;;;4916696;28;20232;-73
2023/10/16 10:30:26;;;;;;;30.60;27.42;;;8.40;99.90;;;;;;4934548;28;20172;-74
2023/10/16 10:32:55;;;;;;;34.17;30.67;;;8.50;99.90;;;;;;4919473;28;20158;-74
2023/10/16 10:35:29;;;;;;;29.70;27.02;;;8.40;99.90;;;;;;4936773;28;20051;-73
2023/10/16 10:38:08;;;;;;;32.95;29.80;;;8.40;99.90;;;;;;4935739;28;20043;-73
2023/10/16 10:41:13;;;;;;;32.33;29.10;;;8.40;99.90;;;;;;4919846;28;20043;-73
2023/10/16 10:43:48;;;;;;;31.17;28.25;;;8.60;99.90;;;;;;4931575;28;20043;-73
2023/10/16 10:46:26;;;;;;;31.80;28.83;;;8.80;99.90;;;;;;4940736;28;20047;-72
2023/10/16 10:48:56;;;;;;;31.33;28.52;;;9.00;99.90;;;;;;4939186;28;20051;-72
2023/10/16 10:51:34;;;;;;;33.00;30.23;;;9.00;99.90;;;;;;4943135;28;20066;-73
2023/10/16 10:54:06;;;;;;;31.95;28.90;;;9.20;99.90;;;;;;4951109;28;20061;-72
2023/10/16 10:56:51;;;;;;;32.08;29.02;;;9.10;99.90;;;;;;4932377;28;20027;-73
2023/10/16 10:59:47;;;;;;;31.73;28.70;;;9.20;99.90;;;;;;4959318;28;20131;-73
2023/10/16 11:04:45;;;;;;;35.60;32.17;;;9.10;99.90;;;;;;4939489;28;20044;-73
2023/10/16 11:07:12;;;;;;;35.22;32.10;;;9.20;99.90;;;;;;4959182;28;20027;-73
2023/10/16 11:09:39;;;;;;;47.03;30.98;;;9.40;99.90;;;;;;4915993;28;20074;-73
2023/10/16 11:12:07;;;;;;;36.72;30.52;;;9.70;99.90;;;;;;4931581;28;20040;-73
2023/10/16 11:14:38;;;;;;;34.35;31.58;;;9.90;99.90;;;;;;4947226;28;20066;-73
2023/10/16 11:17:06;;;;;;;32.63;29.73;;;9.90;99.90;;;;;;4948332;28;20070;-74
2023/10/16 11:19:50;;;;;;;32.03;29.50;;;9.80;99.90;;;;;;4942185;28;20085;-73
2023/10/16 11:22:21;;;;;;;34.40;31.30;;;9.90;99.90;;;;;;4941040;28;20035;-73
2023/10/16 11:24:49;;;;;;;33.90;30.77;;;10.20;99.90;;;;;;4949553;28;20039;-74
2023/10/16 11:27:16;;;;;;;35.10;32.20;;;10.30;99.90;;;;;;4958380;28;20081;-74
2023/10/16 11:29:44;;;;;;;35.15;31.85;;;10.30;99.90;;;;;;4948200;28;20047;-75
2023/10/16 11:32:15;;;;;;;34.65;31.60;;;10.20;99.90;;;;;;4951667;28;20572;-74
2023/10/16 11:34:44;;;;;;;33.00;30.30;;;10.30;99.90;;;;;;4932385;28;20047;-74
2023/10/16 11:37:18;;;;;;;34.22;30.90;;;10.30;99.90;;;;;;4907138;28;20036;-74
2023/10/16 11:39:48;;;;;;;34.53;31.60;;;10.30;99.90;;;;;;4919179;28;20036;-75
2023/10/16 11:42:15;;;;;;;35.10;32.10;;;10.20;99.90;;;;;;4919101;28;20050;-74
2023/10/16 11:44:42;;;;;;;34.08;31.08;;;10.30;99.90;;;;;;4938879;28;20047;-75
2023/10/16 11:47:16;;;;;;;34.47;31.58;;;10.50;99.90;;;;;;4939172;28;20050;-75
2023/10/16 11:49:53;;;;;;;36.03;32.83;;;10.40;99.90;;;;;;4920756;28;20068;-77
2023/10/16 11:52:22;;;;;;;35.55;32.45;;;10.50;99.90;;;;;;4936409;28;20040;-75
2023/10/16 11:54:56;;;;;;;34.95;32.28;;;10.40;99.90;;;;;;4933873;28;20051;-75
2023/10/16 11:57:24;;;;;;;36.00;33.00;;;10.30;99.90;;;;;;4924391;28;20042;-75
2023/10/16 11:59:52;;;;;;;34.70;31.88;;;10.30;99.90;;;;;;4939603;28;20042;-75
2023/10/16 12:02:20;;;;;;;34.35;31.42;;;10.30;99.90;;;;;;4917906;28;21094;-75
2023/10/16 12:04:47;;;;;;;33.33;30.40;;;10.30;99.90;;;;;;4936503;28;20062;-80
2023/10/16 12:07:14;;;;;;;35.38;32.42;;;10.10;99.90;;;;;;4937850;28;20433;-74
2023/10/16 12:09:42;;;;;;;34.75;31.75;;;10.00;99.90;;;;;;4922027;28;20051;-76
2023/10/16 12:12:19;;;;;;;33.85;31.10;;;9.90;99.90;;;;;;4923806;28;20044;-74
2023/10/16 12:14:48;;;;;;;31.67;28.98;;;9.90;99.90;;;;;;4944311;28;20046;-74
2023/10/16 12:17:19;;;;;;;31.52;28.92;;;10.20;99.90;;;;;;4951499;28;20036;-71
2023/10/16 12:19:47;;;;;;;31.98;29.15;;;10.40;99.90;;;;;;4953054;28;20097;-71
2023/10/16 12:22:20;;;;;;;31.73;29.08;;;10.60;99.90;;;;;;4951787;28;20106;-73
2023/10/16 12:24:48;;;;;;;30.00;27.60;;;10.70;99.90;;;;;;4940050;28;20717;-72
2023/10/16 12:27:16;;;;;;;29.42;27.02;;;10.70;99.90;;;;;;4921421;28;20261;-74
2023/10/16 12:29:44;;;;;;;29.83;27.52;;;10.50;99.90;;;;;;4922038;28;20127;-73
2023/10/16 12:32:14;;;;;;;29.08;26.67;;;10.20;99.90;;;;;;4920010;28;20126;-74
2023/10/16 12:34:41;;;;;;;29.75;27.05;;;10.20;99.90;;;;;;4937545;28;20169;-74
2023/10/16 12:37:09;;;;;;;29.40;27.10;;;10.20;99.90;;;;;;4929340;28;20043;-74
2023/10/16 12:39:46;;;;;;;31.20;28.90;;;10.20;99.90;;;;;;4937761;28;20532;-74
2023/10/16 12:42:15;;;;;;;31.85;29.33;;;10.30;99.90;;;;;;4921382;28;20765;-75
2023/10/16 12:44:43;;;;;;;32.95;30.30;;;10.50;99.90;;;;;;4905132;28;20397;-75
2023/10/16 12:47:11;;;;;;;32.00;29.52;;;10.70;99.90;;;;;;4934864;28;20047;-74
2023/10/16 12:49:54;;;;;;;31.75;29.40;;;10.80;99.90;;;;;;4938496;28;20138;-74
2023/10/16 12:52:21;;;;;;;30.75;28.50;;;10.80;99.90;;;;;;4898349;28;20047;-73
2023/10/16 12:54:52;;;;;;;30.73;27.98;;;10.80;99.90;;;;;;4932291;28;20134;-73
2023/10/16 12:57:21;;;;;;;31.17;28.73;;;10.80;99.90;;;;;;4918178;28;20036;-74
2023/10/16 12:59:48;;;;;;;33.35;30.65;;;10.80;99.90;;;;;;4918016;28;20050;-74
2023/10/16 13:02:25;;;;;;;31.60;28.92;;;10.70;99.90;;;;;;4901073;28;20464;-75
2023/10/16 13:04:52;;;;;;;32.85;30.08;;;10.60;99.90;;;;;;4919116;28;20043;-74
2023/10/16 13:07:22;;;;;;;31.00;28.52;;;10.60;99.90;;;;;;4934965;28;20573;-73
2023/10/16 13:10:08;;;;;;;31.35;29.05;;;10.70;99.90;;;;;;4937540;28;20106;-73
2023/10/16 13:12:36;;;;;;;30.17;27.63;;;10.60;99.90;;;;;;4914784;28;20068;-73
2023/10/16 13:15:04;;;;;;;30.15;27.55;;;10.60;99.90;;;;;;4934943;28;20142;-71
2023/10/16 13:17:31;;;;;;;31.67;28.98;;;10.70;99.90;;;;;;4918376;28;20399;-73
2023/10/16 13:19:59;;;;;;;30.25;28.05;;;10.60;99.90;;;;;;4934335;28;20040;-73
2023/10/16 13:22:31;;;;;;;31.00;28.58;;;10.70;99.90;;;;;;4933827;28;20063;-73
2023/10/16 13:24:57;;;;;;;30.17;27.90;;;10.50;99.90;;;;;;4918848;28;20146;-73
2023/10/16 13:27:24;;;;;;;34.60;31.80;;;10.40;99.90;;;;;;4933567;28;20098;-74
2023/10/16 13:29:51;;;;;;;34.22;31.08;;;10.30;99.90;;;;;;4917947;28;20082;-73
2023/10/16 13:32:18;;;;;;;33.83;30.83;;;10.10;99.90;;;;;;4934394;28;20039;-73
2023/10/16 13:34:46;;;;;;;32.60;29.88;;;10.30;99.90;;;;;;4936794;28;20046;-73
2023/10/16 13:37:12;;;;;;;32.25;29.73;;;10.40;99.90;;;;;;4934851;28;20046;-74
2023/10/16 13:39:39;;;;;;;31.42;28.92;;;10.40;99.90;;;;;;4933309;28;20150;-74
2023/10/16 13:42:14;;;;;;;32.50;30.05;;;10.40;99.90;;;;;;4918780;28;20043;-74
2023/10/16 13:44:42;;;;;;;31.08;28.48;;;10.60;99.90;;;;;;4914050;28;20127;-74
2023/10/16 13:47:13;;;;;;;31.83;29.27;;;10.70;99.90;;;;;;4919820;28;20043;-74
2023/10/16 13:49:41;;;;;;;33.58;30.77;;;10.80;99.90;;;;;;4924729;28;20043;-75
2023/10/16 13:52:08;;;;;;;33.45;31.00;;;10.70;99.90;;;;;;4935291;28;20106;-73
2023/10/16 13:54:38;;;;;;;33.58;31.08;;;10.70;99.90;;;;;;4933348;28;20051;-75
2023/10/16 13:57:07;;;;;;;33.38;30.60;;;10.70;99.90;;;;;;4916709;28;20047;-75
2023/10/16 13:59:36;;;;;;;33.58;30.92;;;10.70;99.90;;;;;;4935487;28;20047;-76
2023/10/16 14:02:03;;;;;;;34.33;31.63;;;10.70;99.90;;;;;;4933960;28;20118;-75
2023/10/16 14:04:33;;;;;;;33.35;30.92;;;10.70;99.90;;;;;;4921674;28;20715;-76
2023/10/16 14:07:00;;;;;;;33.05;30.77;;;10.70;99.90;;;;;;4936393;28;20047;-75
2023/10/16 14:09:27;;;;;;;33.60;31.30;;;10.60;99.90;;;;;;4932961;28;20178;-75
2023/10/16 14:11:59;;;;;;;33.65;31.05;;;10.70;99.90;;;;;;4929145;28;20095;-75
2023/10/16 14:14:27;;;;;;;31.52;28.83;;;10.60;99.90;;;;;;4916172;28;20102;-73
2023/10/16 14:17:03;;;;;;;31.92;29.25;;;10.60;99.90;;;;;;4933620;28;20042;-75
2023/10/16 14:19:32;;;;;;;29.10;26.73;;;10.50;99.90;;;;;;4924909;28;20433;-75
2023/10/16 14:21:59;;;;;;;29.17;26.83;;;10.50;99.90;;;;;;4914762;28;20058;-75
2023/10/16 14:24:27;;;;;;;28.17;25.73;;;10.50;99.90;;;;;;4932676;28;20189;-74
2023/10/16 14:26:57;;;;;;;27.77;25.58;;;10.30;99.90;;;;;;4915083;28;20114;-75
2023/10/16 14:29:27;;;;;;;25.73;23.92;;;10.20;99.90;;;;;;4932546;28;20149;-74
2023/10/16 14:31:56;;;;;;;28.35;26.10;;;10.20;99.90;;;;;;4918705;28;20047;-75
2023/10/16 14:34:25;;;;;;;27.92;26.13;;;10.30;99.90;;;;;;4934693;28;20075;-75
2023/10/16 14:36:55;;;;;;;27.48;25.65;;;10.40;99.90;;;;;;4923510;28;20051;-74
2023/10/16 14:39:28;;;;;;;27.80;25.88;;;10.50;99.90;;;;;;4930125;28;20710;-76
2023/10/16 14:42:04;;;;;;;27.55;25.33;;;10.30;99.90;;;;;;4931093;28;20105;-75
2023/10/16 14:44:31;;;;;;;26.77;24.77;;;10.40;99.90;;;;;;4931506;28;20055;-74
2023/10/16 14:46:59;;;;;;;28.15;25.90;;;10.40;99.90;;;;;;4935219;28;20127;-75
2023/10/16 14:49:27;;;;;;;27.45;25.45;;;10.50;99.90;;;;;;4903792;28;20061;-75
2023/10/16 14:51:56;;;;;;;28.77;26.65;;;10.50;99.90;;;;;;4900642;28;20043;-75